sensor_id;sensor_type;location;lat;lon;timestamp;P1;durP1;ratioP1;P2;durP2;ratioP2
21671;SDS011;10997;52.242;8.168;2022-11-12T00:02:28;14.15;;;8.68;;
21671;SDS011;10997;52.242;8.168;2022-11-12T00:07:29;15.80;;;8.75;;
21671;SDS011;10997;52.242;8.168;2022-11-12T00:12:29;16.48;;;8.20;;
21671;SDS011;10997;52.242;8.168;2022-11-12T00:17:30;13.60;;;7.85;;
21671;SDS011;10997;52.242;8.168;2022-11-12T00:22:31;12.85;;;7.47;;
21671;SDS011;10997;52.242;8.168;2022-11-12T00:27:32;10.52;;;7.00;;
21671;SDS011;10997;52.242;8.168;2022-11-12T00:32:36;11.27;;;7.75;;
21671;SDS011;10997;52.242;8.168;2022-11-12T00:37:37;13.35;;;7.88;;
21671;SDS011;10997;52.242;8.168;2022-11-12T00:42:37;11.52;;;7.13;;
21671;SDS011;10997;52.242;8.168;2022-11-12T00:47:38;11.15;;;7.60;;
21671;SDS011;10997;52.242;8.168;2022-11-12T00:52:39;13.93;;;7.45;;
21671;SDS011;10997;52.242;8.168;2022-11-12T00:57:39;12.48;;;7.22;;
21671;SDS011;10997;52.242;8.168;2022-11-12T01:02:40;11.75;;;7.38;;
21671;SDS011;10997;52.242;8.168;2022-11-12T01:07:41;11.90;;;7.70;;
21671;SDS011;10997;52.242;8.168;2022-11-12T01:12:41;11.52;;;7.45;;
21671;SDS011;10997;52.242;8.168;2022-11-12T01:17:42;12.02;;;7.13;;
21671;SDS011;10997;52.242;8.168;2022-11-12T01:22:43;11.80;;;6.97;;
21671;SDS011;10997;52.242;8.168;2022-11-12T01:27:43;10.65;;;6.93;;
21671;SDS011;10997;52.242;8.168;2022-11-12T01:32:44;11.65;;;7.20;;
21671;SDS011;10997;52.242;8.168;2022-11-12T01:37:45;11.30;;;7.30;;
21671;SDS011;10997;52.242;8.168;2022-11-12T01:42:50;9.73;;;7.03;;
21671;SDS011;10997;52.242;8.168;2022-11-12T01:47:51;9.77;;;7.22;;
21671;SDS011;10997;52.242;8.168;2022-11-12T01:52:56;12.05;;;6.60;;
21671;SDS011;10997;52.242;8.168;2022-11-12T01:58:04;10.55;;;7.35;;
21671;SDS011;10997;52.242;8.168;2022-11-12T02:03:12;10.85;;;6.93;;
21671;SDS011;10997;52.242;8.168;2022-11-12T02:08:17;11.75;;;6.93;;
21671;SDS011;10997;52.242;8.168;2022-11-12T02:13:20;9.70;;;6.15;;
21671;SDS011;10997;52.242;8.168;2022-11-12T02:18:40;9.80;;;6.65;;
21671;SDS011;10997;52.242;8.168;2022-11-12T02:23:40;7.88;;;6.10;;
21671;SDS011;10997;52.242;8.168;2022-11-12T02:28:41;8.38;;;6.13;;
21671;SDS011;10997;52.242;8.168;2022-11-12T02:33:42;9.73;;;6.68;;
21671;SDS011;10997;52.242;8.168;2022-11-12T02:38:42;9.38;;;6.40;;
21671;SDS011;10997;52.242;8.168;2022-11-12T02:43:43;8.00;;;6.00;;
21671;SDS011;10997;52.242;8.168;2022-11-12T02:48:44;12.10;;;6.40;;
21671;SDS011;10997;52.242;8.168;2022-11-12T02:53:44;8.35;;;6.30;;
21671;SDS011;10997;52.242;8.168;2022-11-12T02:58:45;10.25;;;6.45;;
21671;SDS011;10997;52.242;8.168;2022-11-12T03:03:46;11.43;;;6.78;;
21671;SDS011;10997;52.242;8.168;2022-11-12T03:08:46;10.30;;;7.00;;
21671;SDS011;10997;52.242;8.168;2022-11-12T03:13:47;10.95;;;7.00;;
21671;SDS011;10997;52.242;8.168;2022-11-12T03:18:48;11.38;;;7.07;;
21671;SDS011;10997;52.242;8.168;2022-11-12T03:23:48;13.68;;;6.82;;
21671;SDS011;10997;52.242;8.168;2022-11-12T03:28:49;10.23;;;6.22;;
21671;SDS011;10997;52.242;8.168;2022-11-12T03:33:50;12.52;;;6.82;;
21671;SDS011;10997;52.242;8.168;2022-11-12T03:38:51;9.50;;;6.63;;
21671;SDS011;10997;52.242;8.168;2022-11-12T03:43:52;9.82;;;7.05;;
21671;SDS011;10997;52.242;8.168;2022-11-12T03:48:52;8.85;;;6.43;;
21671;SDS011;10997;52.242;8.168;2022-11-12T03:53:53;11.65;;;6.93;;
21671;SDS011;10997;52.242;8.168;2022-11-12T03:58:54;10.35;;;7.00;;
21671;SDS011;10997;52.242;8.168;2022-11-12T04:03:54;11.13;;;6.57;;
21671;SDS011;10997;52.242;8.168;2022-11-12T04:08:55;11.27;;;7.25;;
21671;SDS011;10997;52.242;8.168;2022-11-12T04:13:55;12.63;;;7.50;;
21671;SDS011;10997;52.242;8.168;2022-11-12T04:18:57;12.65;;;7.38;;
21671;SDS011;10997;52.242;8.168;2022-11-12T04:24:19;12.45;;;7.10;;
21671;SDS011;10997;52.242;8.168;2022-11-12T04:29:38;10.80;;;6.68;;
21671;SDS011;10997;52.242;8.168;2022-11-12T04:34:57;11.13;;;7.32;;
21671;SDS011;10997;52.242;8.168;2022-11-12T04:39:58;10.32;;;7.38;;
21671;SDS011;10997;52.242;8.168;2022-11-12T04:45:19;12.02;;;6.97;;
21671;SDS011;10997;52.242;8.168;2022-11-12T04:50:19;9.50;;;6.95;;
21671;SDS011;10997;52.242;8.168;2022-11-12T04:55:20;9.02;;;6.90;;
21671;SDS011;10997;52.242;8.168;2022-11-12T05:00:21;10.70;;;6.68;;
21671;SDS011;10997;52.242;8.168;2022-11-12T05:05:21;8.60;;;6.75;;
21671;SDS011;10997;52.242;8.168;2022-11-12T05:10:22;11.57;;;7.25;;
21671;SDS011;10997;52.242;8.168;2022-11-12T05:15:23;8.93;;;6.72;;
21671;SDS011;10997;52.242;8.168;2022-11-12T05:20:24;10.20;;;7.38;;
21671;SDS011;10997;52.242;8.168;2022-11-12T05:25:25;11.15;;;7.93;;
21671;SDS011;10997;52.242;8.168;2022-11-12T05:30:25;11.27;;;7.75;;
21671;SDS011;10997;52.242;8.168;2022-11-12T05:35:26;14.13;;;10.13;;
21671;SDS011;10997;52.242;8.168;2022-11-12T05:40:27;15.07;;;10.77;;
21671;SDS011;10997;52.242;8.168;2022-11-12T05:45:27;15.68;;;10.95;;
21671;SDS011;10997;52.242;8.168;2022-11-12T05:50:28;20.75;;;11.68;;
21671;SDS011;10997;52.242;8.168;2022-11-12T05:55:29;11.32;;;8.18;;
21671;SDS011;10997;52.242;8.168;2022-11-12T06:00:30;12.10;;;8.18;;
21671;SDS011;10997;52.242;8.168;2022-11-12T06:05:31;14.77;;;10.07;;
21671;SDS011;10997;52.242;8.168;2022-11-12T06:10:32;17.25;;;10.98;;
21671;SDS011;10997;52.242;8.168;2022-11-12T06:15:33;21.08;;;12.32;;
21671;SDS011;10997;52.242;8.168;2022-11-12T06:20:34;18.20;;;12.30;;
21671;SDS011;10997;52.242;8.168;2022-11-12T06:25:35;15.90;;;10.23;;
21671;SDS011;10997;52.242;8.168;2022-11-12T06:30:35;15.57;;;11.07;;
21671;SDS011;10997;52.242;8.168;2022-11-12T06:35:36;43.30;;;22.75;;
21671;SDS011;10997;52.242;8.168;2022-11-12T06:40:37;29.05;;;16.33;;
21671;SDS011;10997;52.242;8.168;2022-11-12T06:45:37;29.33;;;18.30;;
21671;SDS011;10997;52.242;8.168;2022-11-12T06:50:38;25.95;;;16.58;;
21671;SDS011;10997;52.242;8.168;2022-11-12T06:55:38;18.25;;;13.68;;
21671;SDS011;10997;52.242;8.168;2022-11-12T07:00:39;18.90;;;12.50;;
21671;SDS011;10997;52.242;8.168;2022-11-12T07:05:40;17.80;;;12.13;;
21671;SDS011;10997;52.242;8.168;2022-11-12T07:10:40;20.38;;;12.48;;
21671;SDS011;10997;52.242;8.168;2022-11-12T07:15:41;21.90;;;14.30;;
21671;SDS011;10997;52.242;8.168;2022-11-12T07:20:42;22.90;;;14.13;;
21671;SDS011;10997;52.242;8.168;2022-11-12T07:25:43;20.15;;;13.60;;
21671;SDS011;10997;52.242;8.168;2022-11-12T07:30:43;24.00;;;13.70;;
21671;SDS011;10997;52.242;8.168;2022-11-12T07:35:44;18.45;;;12.32;;
21671;SDS011;10997;52.242;8.168;2022-11-12T07:40:44;18.58;;;13.15;;
21671;SDS011;10997;52.242;8.168;2022-11-12T07:45:45;21.45;;;13.00;;
21671;SDS011;10997;52.242;8.168;2022-11-12T07:50:46;18.90;;;12.90;;
21671;SDS011;10997;52.242;8.168;2022-11-12T07:55:53;19.00;;;12.50;;
21671;SDS011;10997;52.242;8.168;2022-11-12T08:01:06;20.25;;;13.88;;
21671;SDS011;10997;52.242;8.168;2022-11-12T08:06:19;23.58;;;16.33;;
21671;SDS011;10997;52.242;8.168;2022-11-12T08:11:20;50.08;;;25.88;;
21671;SDS011;10997;52.242;8.168;2022-11-12T08:16:21;51.65;;;27.08;;
21671;SDS011;10997;52.242;8.168;2022-11-12T08:21:22;27.33;;;16.55;;
21671;SDS011;10997;52.242;8.168;2022-11-12T08:26:23;25.20;;;16.30;;
21671;SDS011;10997;52.242;8.168;2022-11-12T08:31:25;19.77;;;12.90;;
21671;SDS011;10997;52.242;8.168;2022-11-12T08:36:26;20.08;;;13.23;;
21671;SDS011;10997;52.242;8.168;2022-11-12T08:41:27;20.35;;;13.80;;
21671;SDS011;10997;52.242;8.168;2022-11-12T08:46:28;23.13;;;14.15;;
21671;SDS011;10997;52.242;8.168;2022-11-12T08:51:29;21.25;;;14.93;;
21671;SDS011;10997;52.242;8.168;2022-11-12T08:56:29;22.52;;;14.07;;
21671;SDS011;10997;52.242;8.168;2022-11-12T09:01:30;22.10;;;14.45;;
21671;SDS011;10997;52.242;8.168;2022-11-12T09:06:31;20.33;;;14.50;;
21671;SDS011;10997;52.242;8.168;2022-11-12T09:11:31;20.80;;;14.52;;
21671;SDS011;10997;52.242;8.168;2022-11-12T09:16:32;22.17;;;14.35;;
21671;SDS011;10997;52.242;8.168;2022-11-12T09:21:33;18.67;;;13.77;;
21671;SDS011;10997;52.242;8.168;2022-11-12T09:26:34;19.17;;;13.50;;
21671;SDS011;10997;52.242;8.168;2022-11-12T09:31:34;19.70;;;13.70;;
21671;SDS011;10997;52.242;8.168;2022-11-12T09:36:35;18.45;;;13.23;;
21671;SDS011;10997;52.242;8.168;2022-11-12T09:41:39;19.15;;;13.80;;
21671;SDS011;10997;52.242;8.168;2022-11-12T09:46:51;20.70;;;13.60;;
21671;SDS011;10997;52.242;8.168;2022-11-12T09:57:31;16.27;;;12.35;;
21671;SDS011;10997;52.242;8.168;2022-11-12T10:02:40;17.17;;;12.90;;
21671;SDS011;10997;52.242;8.168;2022-11-12T10:23:42;17.45;;;12.60;;
21671;SDS011;10997;52.242;8.168;2022-11-12T10:28:54;20.10;;;12.23;;
21671;SDS011;10997;52.242;8.168;2022-11-12T10:39:41;18.10;;;12.52;;
21671;SDS011;10997;52.242;8.168;2022-11-12T10:44:46;17.40;;;11.45;;
21671;SDS011;10997;52.242;8.168;2022-11-12T10:49:58;16.52;;;11.73;;
21671;SDS011;10997;52.242;8.168;2022-11-12T10:55:14;27.23;;;11.68;;
21671;SDS011;10997;52.242;8.168;2022-11-12T11:00:18;15.27;;;11.18;;
21671;SDS011;10997;52.242;8.168;2022-11-12T11:05:47;14.63;;;10.05;;
21671;SDS011;10997;52.242;8.168;2022-11-12T11:10:55;14.32;;;10.60;;
21671;SDS011;10997;52.242;8.168;2022-11-12T11:16:17;14.05;;;11.15;;
21671;SDS011;10997;52.242;8.168;2022-11-12T11:27:02;15.15;;;10.63;;
21671;SDS011;10997;52.242;8.168;2022-11-12T11:43:19;13.18;;;9.68;;
21671;SDS011;10997;52.242;8.168;2022-11-12T11:53:45;13.18;;;10.02;;
21671;SDS011;10997;52.242;8.168;2022-11-12T12:04:18;17.73;;;11.48;;
21671;SDS011;10997;52.242;8.168;2022-11-12T12:15:09;17.05;;;10.18;;
21671;SDS011;10997;52.242;8.168;2022-11-12T12:25:21;14.18;;;8.70;;
21671;SDS011;10997;52.242;8.168;2022-11-12T12:30:41;9.98;;;8.20;;
21671;SDS011;10997;52.242;8.168;2022-11-12T12:36:00;17.42;;;8.00;;
21671;SDS011;10997;52.242;8.168;2022-11-12T12:41:08;15.50;;;9.35;;
21671;SDS011;10997;52.242;8.168;2022-11-12T12:46:11;14.18;;;8.73;;
21671;SDS011;10997;52.242;8.168;2022-11-12T12:51:15;12.88;;;9.52;;
21671;SDS011;10997;52.242;8.168;2022-11-12T13:01:31;13.77;;;10.30;;
21671;SDS011;10997;52.242;8.168;2022-11-12T13:11:48;16.38;;;12.52;;
21671;SDS011;10997;52.242;8.168;2022-11-12T13:27:32;13.77;;;9.77;;
21671;SDS011;10997;52.242;8.168;2022-11-12T13:42:47;35.92;;;11.45;;
21671;SDS011;10997;52.242;8.168;2022-11-12T13:47:48;13.38;;;9.90;;
21671;SDS011;10997;52.242;8.168;2022-11-12T13:52:49;15.90;;;10.77;;
21671;SDS011;10997;52.242;8.168;2022-11-12T13:57:51;15.18;;;10.13;;
21671;SDS011;10997;52.242;8.168;2022-11-12T14:23:59;17.52;;;11.85;;
21671;SDS011;10997;52.242;8.168;2022-11-12T14:29:01;19.27;;;14.52;;
21671;SDS011;10997;52.242;8.168;2022-11-12T14:34:18;17.17;;;12.00;;
21671;SDS011;10997;52.242;8.168;2022-11-12T14:39:27;15.75;;;10.75;;
21671;SDS011;10997;52.242;8.168;2022-11-12T14:44:32;13.80;;;11.70;;
21671;SDS011;10997;52.242;8.168;2022-11-12T14:54:46;14.75;;;10.15;;
21671;SDS011;10997;52.242;8.168;2022-11-12T14:59:49;15.68;;;10.60;;
21671;SDS011;10997;52.242;8.168;2022-11-12T15:04:51;12.70;;;10.48;;
21671;SDS011;10997;52.242;8.168;2022-11-12T15:09:57;21.30;;;11.88;;
21671;SDS011;10997;52.242;8.168;2022-11-12T15:15:08;22.58;;;13.23;;
21671;SDS011;10997;52.242;8.168;2022-11-12T15:20:17;17.17;;;12.10;;
21671;SDS011;10997;52.242;8.168;2022-11-12T15:25:22;24.25;;;13.45;;
21671;SDS011;10997;52.242;8.168;2022-11-12T15:30:32;30.63;;;18.10;;
21671;SDS011;10997;52.242;8.168;2022-11-12T15:35:33;35.88;;;23.27;;
21671;SDS011;10997;52.242;8.168;2022-11-12T15:40:39;55.67;;;35.28;;
21671;SDS011;10997;52.242;8.168;2022-11-12T15:45:48;39.78;;;26.20;;
21671;SDS011;10997;52.242;8.168;2022-11-12T15:55:51;20.00;;;14.93;;
21671;SDS011;10997;52.242;8.168;2022-11-12T16:00:52;23.77;;;15.35;;
21671;SDS011;10997;52.242;8.168;2022-11-12T16:05:52;38.30;;;22.08;;
21671;SDS011;10997;52.242;8.168;2022-11-12T16:10:53;22.48;;;16.45;;
21671;SDS011;10997;52.242;8.168;2022-11-12T16:15:54;27.75;;;19.58;;
21671;SDS011;10997;52.242;8.168;2022-11-12T16:20:55;35.53;;;25.52;;
21671;SDS011;10997;52.242;8.168;2022-11-12T16:25:56;26.23;;;18.52;;
21671;SDS011;10997;52.242;8.168;2022-11-12T16:30:56;31.40;;;20.73;;
21671;SDS011;10997;52.242;8.168;2022-11-12T16:35:57;28.30;;;20.48;;
21671;SDS011;10997;52.242;8.168;2022-11-12T16:40:58;26.38;;;19.95;;
21671;SDS011;10997;52.242;8.168;2022-11-12T16:45:58;27.50;;;19.02;;
21671;SDS011;10997;52.242;8.168;2022-11-12T16:50:59;39.80;;;30.08;;
21671;SDS011;10997;52.242;8.168;2022-11-12T16:56:00;29.05;;;21.65;;
21671;SDS011;10997;52.242;8.168;2022-11-12T17:01:00;164.75;;;123.15;;
21671;SDS011;10997;52.242;8.168;2022-11-12T17:06:01;76.72;;;56.47;;
21671;SDS011;10997;52.242;8.168;2022-11-12T17:11:05;41.25;;;30.67;;
21671;SDS011;10997;52.242;8.168;2022-11-12T17:16:08;39.65;;;25.98;;
21671;SDS011;10997;52.242;8.168;2022-11-12T17:21:10;34.10;;;22.48;;
21671;SDS011;10997;52.242;8.168;2022-11-12T17:26:17;27.40;;;20.05;;
21671;SDS011;10997;52.242;8.168;2022-11-12T17:31:20;50.75;;;38.75;;
21671;SDS011;10997;52.242;8.168;2022-11-12T17:36:22;32.65;;;24.80;;
21671;SDS011;10997;52.242;8.168;2022-11-12T17:41:25;38.83;;;29.88;;
21671;SDS011;10997;52.242;8.168;2022-11-12T17:46:27;51.55;;;36.75;;
21671;SDS011;10997;52.242;8.168;2022-11-12T17:51:29;39.58;;;27.50;;
21671;SDS011;10997;52.242;8.168;2022-11-12T17:56:29;30.98;;;22.20;;
21671;SDS011;10997;52.242;8.168;2022-11-12T18:01:32;30.85;;;24.65;;
21671;SDS011;10997;52.242;8.168;2022-11-12T18:06:34;39.50;;;29.10;;
21671;SDS011;10997;52.242;8.168;2022-11-12T18:11:45;45.58;;;35.38;;
21671;SDS011;10997;52.242;8.168;2022-11-12T18:16:48;54.63;;;41.35;;
21671;SDS011;10997;52.242;8.168;2022-11-12T18:21:49;50.05;;;37.38;;
21671;SDS011;10997;52.242;8.168;2022-11-12T18:26:51;113.38;;;82.88;;
21671;SDS011;10997;52.242;8.168;2022-11-12T18:31:52;62.30;;;41.97;;
21671;SDS011;10997;52.242;8.168;2022-11-12T18:36:53;100.82;;;74.45;;
21671;SDS011;10997;52.242;8.168;2022-11-12T18:41:53;126.25;;;96.05;;
21671;SDS011;10997;52.242;8.168;2022-11-12T18:46:54;98.85;;;74.93;;
21671;SDS011;10997;52.242;8.168;2022-11-12T18:51:55;63.05;;;44.10;;
21671;SDS011;10997;52.242;8.168;2022-11-12T18:56:55;42.58;;;31.27;;
21671;SDS011;10997;52.242;8.168;2022-11-12T19:01:56;51.70;;;36.10;;
21671;SDS011;10997;52.242;8.168;2022-11-12T19:06:57;50.50;;;35.83;;
21671;SDS011;10997;52.242;8.168;2022-11-12T19:11:58;49.03;;;35.03;;
21671;SDS011;10997;52.242;8.168;2022-11-12T19:16:59;57.45;;;36.38;;
21671;SDS011;10997;52.242;8.168;2022-11-12T19:21:59;34.80;;;26.40;;
21671;SDS011;10997;52.242;8.168;2022-11-12T19:27:00;53.13;;;41.17;;
21671;SDS011;10997;52.242;8.168;2022-11-12T19:32:00;71.72;;;49.95;;
21671;SDS011;10997;52.242;8.168;2022-11-12T19:37:01;42.67;;;26.88;;
21671;SDS011;10997;52.242;8.168;2022-11-12T19:42:02;35.28;;;24.60;;
21671;SDS011;10997;52.242;8.168;2022-11-12T19:47:05;32.75;;;23.20;;
21671;SDS011;10997;52.242;8.168;2022-11-12T19:52:06;41.67;;;28.92;;
21671;SDS011;10997;52.242;8.168;2022-11-12T19:57:07;83.63;;;45.70;;
21671;SDS011;10997;52.242;8.168;2022-11-12T20:02:10;35.75;;;23.40;;
21671;SDS011;10997;52.242;8.168;2022-11-12T20:07:11;41.50;;;25.60;;
21671;SDS011;10997;52.242;8.168;2022-11-12T20:12:12;34.42;;;23.67;;
21671;SDS011;10997;52.242;8.168;2022-11-12T20:17:13;29.80;;;21.85;;
21671;SDS011;10997;52.242;8.168;2022-11-12T20:22:13;33.38;;;22.98;;
21671;SDS011;10997;52.242;8.168;2022-11-12T20:27:14;41.75;;;29.13;;
21671;SDS011;10997;52.242;8.168;2022-11-12T20:32:16;42.22;;;28.00;;
21671;SDS011;10997;52.242;8.168;2022-11-12T20:37:18;44.97;;;31.92;;
21671;SDS011;10997;52.242;8.168;2022-11-12T20:42:18;34.72;;;23.27;;
21671;SDS011;10997;52.242;8.168;2022-11-12T20:47:19;37.92;;;24.25;;
21671;SDS011;10997;52.242;8.168;2022-11-12T20:52:20;42.90;;;24.27;;
21671;SDS011;10997;52.242;8.168;2022-11-12T20:57:20;73.68;;;46.50;;
21671;SDS011;10997;52.242;8.168;2022-11-12T21:02:21;51.80;;;39.17;;
21671;SDS011;10997;52.242;8.168;2022-11-12T21:07:22;48.67;;;34.85;;
21671;SDS011;10997;52.242;8.168;2022-11-12T21:12:22;152.02;;;108.28;;
21671;SDS011;10997;52.242;8.168;2022-11-12T21:17:23;229.20;;;145.25;;
21671;SDS011;10997;52.242;8.168;2022-11-12T21:22:24;90.80;;;58.28;;
21671;SDS011;10997;52.242;8.168;2022-11-12T21:27:24;168.65;;;107.80;;
21671;SDS011;10997;52.242;8.168;2022-11-12T21:32:25;199.60;;;124.95;;
21671;SDS011;10997;52.242;8.168;2022-11-12T21:37:26;236.57;;;121.57;;
21671;SDS011;10997;52.242;8.168;2022-11-12T21:42:26;224.18;;;119.75;;
21671;SDS011;10997;52.242;8.168;2022-11-12T21:47:27;138.98;;;71.60;;
21671;SDS011;10997;52.242;8.168;2022-11-12T21:52:28;182.55;;;89.63;;
21671;SDS011;10997;52.242;8.168;2022-11-12T21:57:28;108.40;;;55.28;;
21671;SDS011;10997;52.242;8.168;2022-11-12T22:02:29;166.80;;;105.68;;
21671;SDS011;10997;52.242;8.168;2022-11-12T22:07:29;141.77;;;92.32;;
21671;SDS011;10997;52.242;8.168;2022-11-12T22:12:30;45.25;;;32.17;;
21671;SDS011;10997;52.242;8.168;2022-11-12T22:17:34;112.28;;;63.92;;
21671;SDS011;10997;52.242;8.168;2022-11-12T22:22:34;146.73;;;81.55;;
21671;SDS011;10997;52.242;8.168;2022-11-12T22:27:35;183.25;;;101.22;;
21671;SDS011;10997;52.242;8.168;2022-11-12T22:32:35;128.07;;;75.00;;
21671;SDS011;10997;52.242;8.168;2022-11-12T22:37:36;86.90;;;54.42;;
21671;SDS011;10997;52.242;8.168;2022-11-12T22:42:37;102.13;;;62.03;;
21671;SDS011;10997;52.242;8.168;2022-11-12T22:47:37;51.25;;;35.13;;
21671;SDS011;10997;52.242;8.168;2022-11-12T22:52:38;65.18;;;41.35;;
21671;SDS011;10997;52.242;8.168;2022-11-12T22:57:39;36.00;;;24.92;;
21671;SDS011;10997;52.242;8.168;2022-11-12T23:02:39;63.92;;;42.30;;
21671;SDS011;10997;52.242;8.168;2022-11-12T23:07:40;55.80;;;37.45;;
21671;SDS011;10997;52.242;8.168;2022-11-12T23:12:41;88.47;;;53.15;;
21671;SDS011;10997;52.242;8.168;2022-11-12T23:17:41;39.08;;;26.15;;
21671;SDS011;10997;52.242;8.168;2022-11-12T23:22:42;42.55;;;31.38;;
21671;SDS011;10997;52.242;8.168;2022-11-12T23:27:44;28.40;;;21.80;;
21671;SDS011;10997;52.242;8.168;2022-11-12T23:32:44;27.70;;;20.73;;
21671;SDS011;10997;52.242;8.168;2022-11-12T23:37:45;30.83;;;23.67;;
21671;SDS011;10997;52.242;8.168;2022-11-12T23:42:46;29.67;;;20.45;;
21671;SDS011;10997;52.242;8.168;2022-11-12T23:47:46;26.85;;;19.85;;
21671;SDS011;10997;52.242;8.168;2022-11-12T23:52:47;23.45;;;18.70;;
21671;SDS011;10997;52.242;8.168;2022-11-12T23:57:48;24.90;;;18.63;;
